RJSO(METAR)
02/28 07:00
METAR RJSO 272200Z 27003KT 9999 FEW020 BKN035 M05/M06 Q1028 RMK
1CU020 7SC035 A3036=
戻る
トップページへ戻る
IMOC Co,.Ltd.